sensor_id;sensor_type;location;lat;lon;timestamp;temperature;humidity
58519;DHT22;44310;48.106;12.008;2023-05-07T00:01:42;18.90;91.30
58519;DHT22;44310;48.106;12.008;2023-05-07T00:04:09;18.80;91.20
58519;DHT22;44310;48.106;12.008;2023-05-07T00:06:37;18.90;91.20
58519;DHT22;44310;48.106;12.008;2023-05-07T00:09:04;18.80;91.20
58519;DHT22;44310;48.106;12.008;2023-05-07T00:11:32;18.80;91.10
58519;DHT22;44310;48.106;12.008;2023-05-07T00:14:00;18.70;91.10
58519;DHT22;44310;48.106;12.008;2023-05-07T00:16:28;18.80;91.20
58519;DHT22;44310;48.106;12.008;2023-05-07T00:18:55;18.70;91.20
58519;DHT22;44310;48.106;12.008;2023-05-07T00:21:22;18.70;91.20
58519;DHT22;44310;48.106;12.008;2023-05-07T00:23:49;18.90;91.40
58519;DHT22;44310;48.106;12.008;2023-05-07T00:26:16;18.20;91.40
58519;DHT22;44310;48.106;12.008;2023-05-07T00:28:43;18.80;91.40
58519;DHT22;44310;48.106;12.008;2023-05-07T00:31:10;18.80;91.40
58519;DHT22;44310;48.106;12.008;2023-05-07T00:33:38;19.20;91.50
58519;DHT22;44310;48.106;12.008;2023-05-07T00:36:05;18.80;91.40
58519;DHT22;44310;48.106;12.008;2023-05-07T00:38:32;18.80;91.30
58519;DHT22;44310;48.106;12.008;2023-05-07T00:41:00;18.70;91.30
58519;DHT22;44310;48.106;12.008;2023-05-07T00:43:27;18.60;91.30
58519;DHT22;44310;48.106;12.008;2023-05-07T00:45:54;18.50;91.30
58519;DHT22;44310;48.106;12.008;2023-05-07T00:48:21;18.70;91.30
58519;DHT22;44310;48.106;12.008;2023-05-07T00:50:51;18.70;91.30
58519;DHT22;44310;48.106;12.008;2023-05-07T00:53:18;18.70;91.30
58519;DHT22;44310;48.106;12.008;2023-05-07T00:55:46;18.70;91.30
58519;DHT22;44310;48.106;12.008;2023-05-07T00:58:13;18.70;91.50
58519;DHT22;44310;48.106;12.008;2023-05-07T01:00:40;19.00;91.30
58519;DHT22;44310;48.106;12.008;2023-05-07T01:03:07;18.70;91.20
58519;DHT22;44310;48.106;12.008;2023-05-07T01:05:35;18.70;91.30
58519;DHT22;44310;48.106;12.008;2023-05-07T01:08:04;18.70;91.30
58519;DHT22;44310;48.106;12.008;2023-05-07T01:10:32;18.70;91.20
58519;DHT22;44310;48.106;12.008;2023-05-07T01:12:59;18.70;91.20
58519;DHT22;44310;48.106;12.008;2023-05-07T01:15:27;18.70;91.20
58519;DHT22;44310;48.106;12.008;2023-05-07T01:17:55;18.90;91.10
58519;DHT22;44310;48.106;12.008;2023-05-07T01:20:23;18.70;91.00
58519;DHT22;44310;48.106;12.008;2023-05-07T01:22:50;18.70;91.10
58519;DHT22;44310;48.106;12.008;2023-05-07T01:25:18;18.70;91.10
58519;DHT22;44310;48.106;12.008;2023-05-07T01:27:45;18.60;91.00
58519;DHT22;44310;48.106;12.008;2023-05-07T01:30:12;18.90;91.20
58519;DHT22;44310;48.106;12.008;2023-05-07T01:32:44;18.70;91.10
58519;DHT22;44310;48.106;12.008;2023-05-07T01:35:18;18.70;91.60
58519;DHT22;44310;48.106;12.008;2023-05-07T01:37:47;18.80;91.80
58519;DHT22;44310;48.106;12.008;2023-05-07T01:40:15;18.90;91.90
58519;DHT22;44310;48.106;12.008;2023-05-07T01:42:43;18.60;91.80
58519;DHT22;44310;48.106;12.008;2023-05-07T01:45:10;18.90;91.90
58519;DHT22;44310;48.106;12.008;2023-05-07T01:47:39;18.90;91.90
58519;DHT22;44310;48.106;12.008;2023-05-07T01:50:07;18.80;91.80
58519;DHT22;44310;48.106;12.008;2023-05-07T01:52:38;18.80;91.70
58519;DHT22;44310;48.106;12.008;2023-05-07T01:55:06;18.80;91.70
58519;DHT22;44310;48.106;12.008;2023-05-07T01:57:33;18.80;91.60
58519;DHT22;44310;48.106;12.008;2023-05-07T02:00:00;18.80;91.60
58519;DHT22;44310;48.106;12.008;2023-05-07T02:02:29;18.80;91.70
58519;DHT22;44310;48.106;12.008;2023-05-07T02:04:57;18.70;91.60
58519;DHT22;44310;48.106;12.008;2023-05-07T02:07:24;18.90;91.70
58519;DHT22;44310;48.106;12.008;2023-05-07T02:09:51;18.80;91.60
58519;DHT22;44310;48.106;12.008;2023-05-07T02:12:18;18.80;91.60
58519;DHT22;44310;48.106;12.008;2023-05-07T02:14:45;18.70;91.50
58519;DHT22;44310;48.106;12.008;2023-05-07T02:17:13;18.80;91.80
58519;DHT22;44310;48.106;12.008;2023-05-07T02:19:40;18.80;92.00
58519;DHT22;44310;48.106;12.008;2023-05-07T02:22:07;18.50;91.90
58519;DHT22;44310;48.106;12.008;2023-05-07T02:24:34;18.90;92.00
58519;DHT22;44310;48.106;12.008;2023-05-07T02:27:01;18.90;92.10
58519;DHT22;44310;48.106;12.008;2023-05-07T02:29:30;18.80;92.00
58519;DHT22;44310;48.106;12.008;2023-05-07T02:31:57;18.90;92.00
58519;DHT22;44310;48.106;12.008;2023-05-07T02:34:24;18.80;91.90
58519;DHT22;44310;48.106;12.008;2023-05-07T02:36:51;18.90;91.90
58519;DHT22;44310;48.106;12.008;2023-05-07T02:39:18;18.80;91.80
58519;DHT22;44310;48.106;12.008;2023-05-07T02:41:45;18.90;91.90
58519;DHT22;44310;48.106;12.008;2023-05-07T02:44:12;18.80;91.90
58519;DHT22;44310;48.106;12.008;2023-05-07T02:46:39;18.80;91.90
58519;DHT22;44310;48.106;12.008;2023-05-07T02:49:06;18.80;91.90
58519;DHT22;44310;48.106;12.008;2023-05-07T02:51:33;18.80;92.00
58519;DHT22;44310;48.106;12.008;2023-05-07T02:54:01;18.90;92.20
58519;DHT22;44310;48.106;12.008;2023-05-07T02:56:28;18.90;92.20
58519;DHT22;44310;48.106;12.008;2023-05-07T02:58:55;19.00;92.10
58519;DHT22;44310;48.106;12.008;2023-05-07T03:01:22;18.80;91.90
58519;DHT22;44310;48.106;12.008;2023-05-07T03:03:49;18.80;91.90
58519;DHT22;44310;48.106;12.008;2023-05-07T03:06:16;18.80;91.90
58519;DHT22;44310;48.106;12.008;2023-05-07T03:08:44;18.80;91.90
58519;DHT22;44310;48.106;12.008;2023-05-07T03:11:11;18.70;91.90
58519;DHT22;44310;48.106;12.008;2023-05-07T03:13:38;18.70;91.80
58519;DHT22;44310;48.106;12.008;2023-05-07T03:16:05;18.70;91.70
58519;DHT22;44310;48.106;12.008;2023-05-07T03:18:32;18.70;91.60
58519;DHT22;44310;48.106;12.008;2023-05-07T03:20:59;18.70;91.70
58519;DHT22;44310;48.106;12.008;2023-05-07T03:23:27;18.60;91.70
58519;DHT22;44310;48.106;12.008;2023-05-07T03:25:54;18.70;91.70
58519;DHT22;44310;48.106;12.008;2023-05-07T03:28:21;18.70;91.70
58519;DHT22;44310;48.106;12.008;2023-05-07T03:30:48;18.30;91.60
58519;DHT22;44310;48.106;12.008;2023-05-07T03:33:15;18.70;91.60
58519;DHT22;44310;48.106;12.008;2023-05-07T03:35:43;18.70;91.60
58519;DHT22;44310;48.106;12.008;2023-05-07T03:38:10;18.70;91.50
58519;DHT22;44310;48.106;12.008;2023-05-07T03:40:37;18.70;91.90
58519;DHT22;44310;48.106;12.008;2023-05-07T03:43:04;18.70;92.20
58519;DHT22;44310;48.106;12.008;2023-05-07T03:45:31;18.80;92.40
58519;DHT22;44310;48.106;12.008;2023-05-07T03:47:58;18.80;92.30
58519;DHT22;44310;48.106;12.008;2023-05-07T03:50:25;18.90;92.40
58519;DHT22;44310;48.106;12.008;2023-05-07T03:52:52;18.90;92.70
58519;DHT22;44310;48.106;12.008;2023-05-07T03:55:20;18.90;92.70
58519;DHT22;44310;48.106;12.008;2023-05-07T03:57:47;19.00;92.80
58519;DHT22;44310;48.106;12.008;2023-05-07T04:00:14;18.90;92.90
58519;DHT22;44310;48.106;12.008;2023-05-07T04:02:41;18.90;93.00
58519;DHT22;44310;48.106;12.008;2023-05-07T04:05:08;18.80;93.20
58519;DHT22;44310;48.106;12.008;2023-05-07T04:07:36;19.00;93.30
58519;DHT22;44310;48.106;12.008;2023-05-07T04:10:03;19.00;93.20
58519;DHT22;44310;48.106;12.008;2023-05-07T04:12:30;18.90;93.20
58519;DHT22;44310;48.106;12.008;2023-05-07T04:14:57;18.90;93.10
58519;DHT22;44310;48.106;12.008;2023-05-07T04:17:24;18.90;93.10
58519;DHT22;44310;48.106;12.008;2023-05-07T04:19:52;18.90;93.00
58519;DHT22;44310;48.106;12.008;2023-05-07T04:22:19;18.90;92.90
58519;DHT22;44310;48.106;12.008;2023-05-07T04:24:46;18.80;92.80
58519;DHT22;44310;48.106;12.008;2023-05-07T04:27:13;18.70;92.80
58519;DHT22;44310;48.106;12.008;2023-05-07T04:29:40;18.80;92.70
58519;DHT22;44310;48.106;12.008;2023-05-07T04:32:09;19.00;92.70
58519;DHT22;44310;48.106;12.008;2023-05-07T04:34:37;18.80;92.60
58519;DHT22;44310;48.106;12.008;2023-05-07T04:37:04;18.80;92.60
58519;DHT22;44310;48.106;12.008;2023-05-07T04:39:32;18.90;92.60
58519;DHT22;44310;48.106;12.008;2023-05-07T04:41:59;18.90;92.50
58519;DHT22;44310;48.106;12.008;2023-05-07T04:44:27;19.00;92.40
58519;DHT22;44310;48.106;12.008;2023-05-07T04:46:54;18.30;92.20
58519;DHT22;44310;48.106;12.008;2023-05-07T04:49:21;18.80;92.50
58519;DHT22;44310;48.106;12.008;2023-05-07T04:51:48;18.80;92.20
58519;DHT22;44310;48.106;12.008;2023-05-07T04:54:15;18.80;92.10
58519;DHT22;44310;48.106;12.008;2023-05-07T04:56:42;18.60;92.10
58519;DHT22;44310;48.106;12.008;2023-05-07T04:59:09;18.80;92.20
58519;DHT22;44310;48.106;12.008;2023-05-07T05:01:37;18.80;92.20
58519;DHT22;44310;48.106;12.008;2023-05-07T05:04:04;19.60;92.50
58519;DHT22;44310;48.106;12.008;2023-05-07T05:06:32;18.80;92.20
58519;DHT22;44310;48.106;12.008;2023-05-07T05:08:59;18.80;92.20
58519;DHT22;44310;48.106;12.008;2023-05-07T05:11:26;18.80;92.20
58519;DHT22;44310;48.106;12.008;2023-05-07T05:13:53;18.80;92.20
58519;DHT22;44310;48.106;12.008;2023-05-07T05:16:20;18.80;92.20
58519;DHT22;44310;48.106;12.008;2023-05-07T05:18:47;18.80;92.20
58519;DHT22;44310;48.106;12.008;2023-05-07T05:21:14;18.60;92.20
58519;DHT22;44310;48.106;12.008;2023-05-07T05:23:42;18.90;92.30
58519;DHT22;44310;48.106;12.008;2023-05-07T05:26:09;18.80;92.20
58519;DHT22;44310;48.106;12.008;2023-05-07T05:28:36;18.90;92.10
58519;DHT22;44310;48.106;12.008;2023-05-07T05:31:04;18.80;92.10
58519;DHT22;44310;48.106;12.008;2023-05-07T05:33:31;18.80;92.20
58519;DHT22;44310;48.106;12.008;2023-05-07T05:35:58;18.70;92.40
58519;DHT22;44310;48.106;12.008;2023-05-07T05:38:26;18.70;92.20
58519;DHT22;44310;48.106;12.008;2023-05-07T05:40:53;18.70;92.20
58519;DHT22;44310;48.106;12.008;2023-05-07T05:43:22;18.90;92.20
58519;DHT22;44310;48.106;12.008;2023-05-07T05:45:49;18.70;92.10
58519;DHT22;44310;48.106;12.008;2023-05-07T05:48:16;18.70;92.20
58519;DHT22;44310;48.106;12.008;2023-05-07T05:50:44;18.70;92.30
58519;DHT22;44310;48.106;12.008;2023-05-07T05:53:11;18.80;92.30
58519;DHT22;44310;48.106;12.008;2023-05-07T05:55:38;18.80;92.30
58519;DHT22;44310;48.106;12.008;2023-05-07T05:58:05;18.90;92.20
58519;DHT22;44310;48.106;12.008;2023-05-07T06:00:32;18.80;92.20
58519;DHT22;44310;48.106;12.008;2023-05-07T06:02:59;18.80;92.10
58519;DHT22;44310;48.106;12.008;2023-05-07T06:05:27;18.90;92.10
58519;DHT22;44310;48.106;12.008;2023-05-07T06:07:54;18.80;92.10
58519;DHT22;44310;48.106;12.008;2023-05-07T06:10:21;18.90;92.00
58519;DHT22;44310;48.106;12.008;2023-05-07T06:12:48;18.90;92.00
58519;DHT22;44310;48.106;12.008;2023-05-07T06:15:15;18.70;91.90
58519;DHT22;44310;48.106;12.008;2023-05-07T06:17:42;18.90;92.00
58519;DHT22;44310;48.106;12.008;2023-05-07T06:20:10;18.80;91.90
58519;DHT22;44310;48.106;12.008;2023-05-07T06:22:37;18.90;92.00
58519;DHT22;44310;48.106;12.008;2023-05-07T06:25:05;18.90;91.90
58519;DHT22;44310;48.106;12.008;2023-05-07T06:27:32;18.90;91.90
58519;DHT22;44310;48.106;12.008;2023-05-07T06:29:59;18.80;91.90
58519;DHT22;44310;48.106;12.008;2023-05-07T06:32:27;18.80;91.90
58519;DHT22;44310;48.106;12.008;2023-05-07T06:34:54;18.90;91.90
58519;DHT22;44310;48.106;12.008;2023-05-07T06:37:21;18.90;92.00
58519;DHT22;44310;48.106;12.008;2023-05-07T06:39:49;18.90;91.90
58519;DHT22;44310;48.106;12.008;2023-05-07T06:42:16;18.90;91.90
58519;DHT22;44310;48.106;12.008;2023-05-07T06:44:43;18.90;91.90
58519;DHT22;44310;48.106;12.008;2023-05-07T06:47:10;18.90;91.80
58519;DHT22;44310;48.106;12.008;2023-05-07T06:49:37;18.90;91.90
58519;DHT22;44310;48.106;12.008;2023-05-07T06:52:04;19.00;91.90
58519;DHT22;44310;48.106;12.008;2023-05-07T06:54:31;18.80;91.90
58519;DHT22;44310;48.106;12.008;2023-05-07T06:56:58;19.20;92.00
58519;DHT22;44310;48.106;12.008;2023-05-07T06:59:25;18.90;92.00
58519;DHT22;44310;48.106;12.008;2023-05-07T07:01:52;18.80;92.00
58519;DHT22;44310;48.106;12.008;2023-05-07T07:04:20;18.90;92.10
58519;DHT22;44310;48.106;12.008;2023-05-07T07:06:49;18.90;92.10
58519;DHT22;44310;48.106;12.008;2023-05-07T07:09:16;18.90;92.10
58519;DHT22;44310;48.106;12.008;2023-05-07T07:11:43;19.00;92.10
58519;DHT22;44310;48.106;12.008;2023-05-07T07:14:10;18.90;92.10
58519;DHT22;44310;48.106;12.008;2023-05-07T07:16:37;19.10;92.10
58519;DHT22;44310;48.106;12.008;2023-05-07T07:19:05;18.90;92.10
58519;DHT22;44310;48.106;12.008;2023-05-07T07:21:32;19.00;92.10
58519;DHT22;44310;48.106;12.008;2023-05-07T07:23:59;19.10;92.10
58519;DHT22;44310;48.106;12.008;2023-05-07T07:26:26;19.10;92.20
58519;DHT22;44310;48.106;12.008;2023-05-07T07:28:53;18.90;91.90
58519;DHT22;44310;48.106;12.008;2023-05-07T07:31:20;18.80;92.10
58519;DHT22;44310;48.106;12.008;2023-05-07T07:33:47;18.80;91.90
58519;DHT22;44310;48.106;12.008;2023-05-07T07:36:18;18.70;92.00
58519;DHT22;44310;48.106;12.008;2023-05-07T07:38:47;18.70;92.00
58519;DHT22;44310;48.106;12.008;2023-05-07T07:41:14;18.70;92.10
58519;DHT22;44310;48.106;12.008;2023-05-07T07:43:41;18.80;92.20
58519;DHT22;44310;48.106;12.008;2023-05-07T07:46:09;18.90;92.30
58519;DHT22;44310;48.106;12.008;2023-05-07T07:48:36;18.90;92.30
58519;DHT22;44310;48.106;12.008;2023-05-07T07:51:03;18.60;92.40
58519;DHT22;44310;48.106;12.008;2023-05-07T07:53:30;19.00;92.60
58519;DHT22;44310;48.106;12.008;2023-05-07T07:55:57;19.00;92.60
58519;DHT22;44310;48.106;12.008;2023-05-07T07:58:25;19.00;92.70
58519;DHT22;44310;48.106;12.008;2023-05-07T08:00:53;19.20;92.90
58519;DHT22;44310;48.106;12.008;2023-05-07T08:03:22;19.10;92.90
58519;DHT22;44310;48.106;12.008;2023-05-07T08:05:50;19.30;93.00
58519;DHT22;44310;48.106;12.008;2023-05-07T08:08:18;19.00;92.90
58519;DHT22;44310;48.106;12.008;2023-05-07T08:10:45;19.20;93.00
58519;DHT22;44310;48.106;12.008;2023-05-07T08:13:12;19.10;93.10
58519;DHT22;44310;48.106;12.008;2023-05-07T08:15:39;19.60;93.30
58519;DHT22;44310;48.106;12.008;2023-05-07T08:18:06;19.80;93.40
58519;DHT22;44310;48.106;12.008;2023-05-07T08:20:34;19.20;93.30
58519;DHT22;44310;48.106;12.008;2023-05-07T08:23:06;19.20;93.30
58519;DHT22;44310;48.106;12.008;2023-05-07T08:25:34;19.20;93.30
58519;DHT22;44310;48.106;12.008;2023-05-07T08:28:01;19.10;93.30
58519;DHT22;44310;48.106;12.008;2023-05-07T08:30:30;19.20;93.40
58519;DHT22;44310;48.106;12.008;2023-05-07T08:32:57;19.20;93.40
58519;DHT22;44310;48.106;12.008;2023-05-07T08:35:24;19.30;93.40
58519;DHT22;44310;48.106;12.008;2023-05-07T08:37:52;19.20;93.40
58519;DHT22;44310;48.106;12.008;2023-05-07T08:40:25;19.20;93.40
58519;DHT22;44310;48.106;12.008;2023-05-07T08:42:53;19.20;93.50
58519;DHT22;44310;48.106;12.008;2023-05-07T08:45:20;19.20;93.50
58519;DHT22;44310;48.106;12.008;2023-05-07T08:47:51;19.10;93.50
58519;DHT22;44310;48.106;12.008;2023-05-07T08:50:20;19.30;93.50
58519;DHT22;44310;48.106;12.008;2023-05-07T08:52:48;19.20;93.50
58519;DHT22;44310;48.106;12.008;2023-05-07T08:55:16;19.80;93.70
58519;DHT22;44310;48.106;12.008;2023-05-07T08:57:43;19.10;93.50
58519;DHT22;44310;48.106;12.008;2023-05-07T09:00:11;19.80;93.70
58519;DHT22;44310;48.106;12.008;2023-05-07T09:02:38;19.10;93.60
58519;DHT22;44310;48.106;12.008;2023-05-07T09:05:06;19.20;93.60
58519;DHT22;44310;48.106;12.008;2023-05-07T09:07:34;19.20;93.60
58519;DHT22;44310;48.106;12.008;2023-05-07T09:10:02;19.20;93.70
58519;DHT22;44310;48.106;12.008;2023-05-07T09:12:31;19.10;93.70
58519;DHT22;44310;48.106;12.008;2023-05-07T09:14:59;19.20;93.70
58519;DHT22;44310;48.106;12.008;2023-05-07T09:17:26;19.10;93.70
58519;DHT22;44310;48.106;12.008;2023-05-07T09:19:54;19.10;93.60
58519;DHT22;44310;48.106;12.008;2023-05-07T09:22:22;18.90;93.60
58519;DHT22;44310;48.106;12.008;2023-05-07T09:24:50;19.10;93.60
58519;DHT22;44310;48.106;12.008;2023-05-07T09:27:18;19.10;93.70
58519;DHT22;44310;48.106;12.008;2023-05-07T09:29:45;19.00;93.70
58519;DHT22;44310;48.106;12.008;2023-05-07T09:32:12;19.00;93.80
58519;DHT22;44310;48.106;12.008;2023-05-07T09:34:41;19.00;93.80
58519;DHT22;44310;48.106;12.008;2023-05-07T09:37:08;19.00;93.80
58519;DHT22;44310;48.106;12.008;2023-05-07T09:39:43;19.00;93.90
58519;DHT22;44310;48.106;12.008;2023-05-07T09:42:11;19.10;94.20
58519;DHT22;44310;48.106;12.008;2023-05-07T09:44:39;19.00;94.30
58519;DHT22;44310;48.106;12.008;2023-05-07T09:47:07;19.10;94.30
58519;DHT22;44310;48.106;12.008;2023-05-07T09:49:37;19.10;94.60
58519;DHT22;44310;48.106;12.008;2023-05-07T09:52:06;19.10;94.20
58519;DHT22;44310;48.106;12.008;2023-05-07T09:54:36;19.20;94.20
58519;DHT22;44310;48.106;12.008;2023-05-07T09:57:05;19.80;94.40
58519;DHT22;44310;48.106;12.008;2023-05-07T09:59:34;19.20;94.20
58519;DHT22;44310;48.106;12.008;2023-05-07T10:02:04;19.10;94.20
58519;DHT22;44310;48.106;12.008;2023-05-07T10:04:32;19.10;94.30
58519;DHT22;44310;48.106;12.008;2023-05-07T10:06:59;19.10;94.40
58519;DHT22;44310;48.106;12.008;2023-05-07T10:09:28;19.10;94.40
58519;DHT22;44310;48.106;12.008;2023-05-07T10:11:56;19.10;94.40
58519;DHT22;44310;48.106;12.008;2023-05-07T10:14:24;19.20;94.50
58519;DHT22;44310;48.106;12.008;2023-05-07T10:16:53;19.10;94.50
58519;DHT22;44310;48.106;12.008;2023-05-07T10:19:22;19.10;94.60
58519;DHT22;44310;48.106;12.008;2023-05-07T10:21:59;19.20;94.50
58519;DHT22;44310;48.106;12.008;2023-05-07T10:24:32;19.10;94.40
58519;DHT22;44310;48.106;12.008;2023-05-07T10:27:10;19.10;94.30
58519;DHT22;44310;48.106;12.008;2023-05-07T10:29:48;19.10;94.30
58519;DHT22;44310;48.106;12.008;2023-05-07T10:32:45;19.00;94.30
58519;DHT22;44310;48.106;12.008;2023-05-07T10:35:26;19.10;94.40
58519;DHT22;44310;48.106;12.008;2023-05-07T10:37:54;19.10;94.40
58519;DHT22;44310;48.106;12.008;2023-05-07T10:40:21;19.10;94.40
58519;DHT22;44310;48.106;12.008;2023-05-07T10:42:59;19.10;94.40
58519;DHT22;44310;48.106;12.008;2023-05-07T10:45:28;19.10;94.40
58519;DHT22;44310;48.106;12.008;2023-05-07T10:51:18;19.10;94.80
58519;DHT22;44310;48.106;12.008;2023-05-07T10:53:47;19.10;94.90
58519;DHT22;44310;48.106;12.008;2023-05-07T10:58:44;19.20;94.90
58519;DHT22;44310;48.106;12.008;2023-05-07T11:01:11;19.20;94.90
58519;DHT22;44310;48.106;12.008;2023-05-07T11:04:14;19.40;95.00
58519;DHT22;44310;48.106;12.008;2023-05-07T11:06:43;19.20;94.20
58519;DHT22;44310;48.106;12.008;2023-05-07T11:15:11;18.80;90.90
58519;DHT22;44310;48.106;12.008;2023-05-07T11:18:13;18.70;91.20
58519;DHT22;44310;48.106;12.008;2023-05-07T11:20:46;18.80;91.40
58519;DHT22;44310;48.106;12.008;2023-05-07T11:26:07;18.90;91.90
58519;DHT22;44310;48.106;12.008;2023-05-07T11:28:40;18.90;92.20
58519;DHT22;44310;48.106;12.008;2023-05-07T11:31:08;19.00;92.30
58519;DHT22;44310;48.106;12.008;2023-05-07T11:33:35;19.10;92.10
58519;DHT22;44310;48.106;12.008;2023-05-07T11:36:04;19.10;92.30
58519;DHT22;44310;48.106;12.008;2023-05-07T11:38:35;19.10;92.70
58519;DHT22;44310;48.106;12.008;2023-05-07T11:41:03;19.10;92.40
58519;DHT22;44310;48.106;12.008;2023-05-07T11:43:32;19.10;92.40
58519;DHT22;44310;48.106;12.008;2023-05-07T11:46:10;19.10;92.70
58519;DHT22;44310;48.106;12.008;2023-05-07T11:48:38;18.80;92.70
58519;DHT22;44310;48.106;12.008;2023-05-07T11:51:07;19.10;91.90
58519;DHT22;44310;48.106;12.008;2023-05-07T11:53:41;19.10;91.80
58519;DHT22;44310;48.106;12.008;2023-05-07T11:56:09;19.10;90.10
58519;DHT22;44310;48.106;12.008;2023-05-07T11:58:37;19.10;90.70
58519;DHT22;44310;48.106;12.008;2023-05-07T12:01:06;19.10;90.50
58519;DHT22;44310;48.106;12.008;2023-05-07T12:03:34;19.10;89.50
58519;DHT22;44310;48.106;12.008;2023-05-07T12:06:04;19.20;88.80
58519;DHT22;44310;48.106;12.008;2023-05-07T12:08:32;19.00;87.30
58519;DHT22;44310;48.106;12.008;2023-05-07T12:10:59;18.90;86.50
58519;DHT22;44310;48.106;12.008;2023-05-07T12:13:26;18.90;86.60
58519;DHT22;44310;48.106;12.008;2023-05-07T12:15:55;18.90;85.20
58519;DHT22;44310;48.106;12.008;2023-05-07T12:18:23;18.90;85.10
58519;DHT22;44310;48.106;12.008;2023-05-07T12:20:51;19.00;86.40
58519;DHT22;44310;48.106;12.008;2023-05-07T12:23:19;19.10;87.40
58519;DHT22;44310;48.106;12.008;2023-05-07T12:25:47;19.10;88.00
58519;DHT22;44310;48.106;12.008;2023-05-07T12:28:15;18.60;88.40
58519;DHT22;44310;48.106;12.008;2023-05-07T12:30:44;19.00;89.40
58519;DHT22;44310;48.106;12.008;2023-05-07T12:33:11;19.20;89.80
58519;DHT22;44310;48.106;12.008;2023-05-07T12:35:42;19.20;89.80
58519;DHT22;44310;48.106;12.008;2023-05-07T12:38:14;19.70;90.00
58519;DHT22;44310;48.106;12.008;2023-05-07T12:40:47;19.90;90.20
58519;DHT22;44310;48.106;12.008;2023-05-07T12:43:18;19.30;90.20
58519;DHT22;44310;48.106;12.008;2023-05-07T12:45:48;19.40;90.20
58519;DHT22;44310;48.106;12.008;2023-05-07T12:48:15;19.30;90.20
58519;DHT22;44310;48.106;12.008;2023-05-07T12:50:43;19.30;90.20
58519;DHT22;44310;48.106;12.008;2023-05-07T12:53:11;19.40;90.40
58519;DHT22;44310;48.106;12.008;2023-05-07T12:55:44;19.40;90.50
58519;DHT22;44310;48.106;12.008;2023-05-07T12:58:24;19.40;90.10
58519;DHT22;44310;48.106;12.008;2023-05-07T13:00:52;19.40;90.20
58519;DHT22;44310;48.106;12.008;2023-05-07T13:03:27;19.30;89.60
58519;DHT22;44310;48.106;12.008;2023-05-07T13:05:57;19.30;89.80
58519;DHT22;44310;48.106;12.008;2023-05-07T13:08:30;19.50;90.30
58519;DHT22;44310;48.106;12.008;2023-05-07T13:10:59;19.30;90.30
58519;DHT22;44310;48.106;12.008;2023-05-07T13:13:34;19.30;90.70
58519;DHT22;44310;48.106;12.008;2023-05-07T13:16:02;19.30;90.90
58519;DHT22;44310;48.106;12.008;2023-05-07T13:18:31;19.30;91.20
58519;DHT22;44310;48.106;12.008;2023-05-07T13:20:59;19.30;91.20
58519;DHT22;44310;48.106;12.008;2023-05-07T13:23:27;19.20;91.60
58519;DHT22;44310;48.106;12.008;2023-05-07T13:25:54;19.20;91.70
58519;DHT22;44310;48.106;12.008;2023-05-07T13:28:25;18.30;91.50
58519;DHT22;44310;48.106;12.008;2023-05-07T13:30:53;19.20;91.90
58519;DHT22;44310;48.106;12.008;2023-05-07T13:33:21;19.20;92.10
58519;DHT22;44310;48.106;12.008;2023-05-07T13:35:48;19.20;92.00
58519;DHT22;44310;48.106;12.008;2023-05-07T13:38:15;19.10;92.70
58519;DHT22;44310;48.106;12.008;2023-05-07T13:40:43;19.10;92.20
58519;DHT22;44310;48.106;12.008;2023-05-07T13:43:10;19.30;92.30
58519;DHT22;44310;48.106;12.008;2023-05-07T13:45:37;19.10;92.40
58519;DHT22;44310;48.106;12.008;2023-05-07T13:48:05;19.10;92.50
58519;DHT22;44310;48.106;12.008;2023-05-07T13:50:32;19.10;92.30
58519;DHT22;44310;48.106;12.008;2023-05-07T13:52:59;19.10;92.30
58519;DHT22;44310;48.106;12.008;2023-05-07T13:55:28;19.60;92.50
58519;DHT22;44310;48.106;12.008;2023-05-07T13:58:01;19.10;92.40
58519;DHT22;44310;48.106;12.008;2023-05-07T14:00:33;19.00;92.50
58519;DHT22;44310;48.106;12.008;2023-05-07T14:03:00;19.00;92.60
58519;DHT22;44310;48.106;12.008;2023-05-07T14:05:28;19.10;92.70
58519;DHT22;44310;48.106;12.008;2023-05-07T14:07:57;19.00;92.60
58519;DHT22;44310;48.106;12.008;2023-05-07T14:10:24;19.00;92.30
58519;DHT22;44310;48.106;12.008;2023-05-07T14:12:51;19.00;92.30
58519;DHT22;44310;48.106;12.008;2023-05-07T14:15:19;18.90;92.30
58519;DHT22;44310;48.106;12.008;2023-05-07T14:17:46;18.80;92.30
58519;DHT22;44310;48.106;12.008;2023-05-07T14:20:14;18.90;92.20
58519;DHT22;44310;48.106;12.008;2023-05-07T14:22:41;18.90;92.00
58519;DHT22;44310;48.106;12.008;2023-05-07T14:25:08;18.90;92.00
58519;DHT22;44310;48.106;12.008;2023-05-07T14:27:37;18.90;92.20
58519;DHT22;44310;48.106;12.008;2023-05-07T14:30:04;19.10;92.10
58519;DHT22;44310;48.106;12.008;2023-05-07T14:32:32;18.90;91.90
58519;DHT22;44310;48.106;12.008;2023-05-07T14:35:00;19.40;92.00
58519;DHT22;44310;48.106;12.008;2023-05-07T14:37:27;18.90;91.70
58519;DHT22;44310;48.106;12.008;2023-05-07T14:39:54;18.90;91.80
58519;DHT22;44310;48.106;12.008;2023-05-07T14:42:21;18.50;91.60
58519;DHT22;44310;48.106;12.008;2023-05-07T14:44:48;18.90;91.70
58519;DHT22;44310;48.106;12.008;2023-05-07T14:47:15;18.90;91.70
58519;DHT22;44310;48.106;12.008;2023-05-07T14:49:45;18.90;91.80
58519;DHT22;44310;48.106;12.008;2023-05-07T14:52:12;18.80;91.70
58519;DHT22;44310;48.106;12.008;2023-05-07T14:54:40;18.90;91.70
58519;DHT22;44310;48.106;12.008;2023-05-07T14:57:09;18.80;91.50
58519;DHT22;44310;48.106;12.008;2023-05-07T14:59:38;18.80;91.40
58519;DHT22;44310;48.106;12.008;2023-05-07T15:02:06;18.80;91.40
58519;DHT22;44310;48.106;12.008;2023-05-07T15:04:35;18.80;91.40
58519;DHT22;44310;48.106;12.008;2023-05-07T15:07:02;18.90;91.30
58519;DHT22;44310;48.106;12.008;2023-05-07T15:09:29;18.80;91.30
58519;DHT22;44310;48.106;12.008;2023-05-07T15:11:56;18.80;91.20
58519;DHT22;44310;48.106;12.008;2023-05-07T15:14:23;18.20;91.10
58519;DHT22;44310;48.106;12.008;2023-05-07T15:16:51;18.90;91.30
58519;DHT22;44310;48.106;12.008;2023-05-07T15:19:18;18.80;91.30
58519;DHT22;44310;48.106;12.008;2023-05-07T15:21:45;18.80;91.30
58519;DHT22;44310;48.106;12.008;2023-05-07T15:24:12;18.80;91.40
58519;DHT22;44310;48.106;12.008;2023-05-07T15:26:39;18.80;91.30
58519;DHT22;44310;48.106;12.008;2023-05-07T15:29:06;18.80;91.40
58519;DHT22;44310;48.106;12.008;2023-05-07T15:31:35;18.80;91.20
58519;DHT22;44310;48.106;12.008;2023-05-07T15:34:04;18.80;91.10
58519;DHT22;44310;48.106;12.008;2023-05-07T15:36:31;18.70;91.40